Time;durP1;ratioP1;P1;durP2;ratioP2;P2;SDS_P1;SDS_P2;PMS_P1;PMS_P2;Temp;Humidity;BMP_temperature;BMP_pressure;BME280_temperature;BME280_humidity;BME280_pressure;Samples;Min_cycle;Max_cycle;Signal;HPM_P1;HPM_P2
2023/11/29 00:01:45;;;;;;;23.88;14.40;;;3.30;99.90;;;;;;5054775;28;20112;-75
2023/11/29 00:04:11;;;;;;;26.67;15.40;;;3.20;99.90;;;;;;5053521;28;20068;-74
2023/11/29 00:06:37;;;;;;;24.75;14.10;;;3.20;99.90;;;;;;5054078;28;20049;-75
2023/11/29 00:09:03;;;;;;;26.70;14.07;;;3.20;99.90;;;;;;5053438;28;20033;-74
2023/11/29 00:11:29;;;;;;;26.33;14.45;;;3.20;99.90;;;;;;5053575;28;20025;-75
2023/11/29 00:13:55;;;;;;;27.10;14.35;;;3.20;99.90;;;;;;5034965;28;20495;-75
2023/11/29 00:16:21;;;;;;;28.48;14.57;;;3.20;99.90;;;;;;5032275;28;20030;-75
2023/11/29 00:18:48;;;;;;;26.48;14.18;;;3.20;99.90;;;;;;5039258;28;20052;-75
2023/11/29 00:21:14;;;;;;;25.48;14.10;;;3.30;99.90;;;;;;5053243;28;20025;-75
2023/11/29 00:23:40;;;;;;;25.67;14.15;;;3.30;99.90;;;;;;5038813;28;20541;-75
2023/11/29 00:26:06;;;;;;;28.15;15.25;;;3.10;99.90;;;;;;5034645;28;20024;-75
2023/11/29 00:28:32;;;;;;;29.70;15.23;;;3.20;99.90;;;;;;5045488;28;20031;-75
2023/11/29 00:30:58;;;;;;;26.85;15.25;;;3.20;99.90;;;;;;5054549;28;20032;-75
2023/11/29 00:33:24;;;;;;;27.13;14.55;;;3.20;99.90;;;;;;5051133;28;20087;-75
2023/11/29 00:35:50;;;;;;;30.08;15.43;;;3.10;99.90;;;;;;5054304;28;20552;-75
2023/11/29 00:38:15;;;;;;;30.88;15.57;;;3.10;99.90;;;;;;5052825;28;20022;-74
2023/11/29 00:40:41;;;;;;;28.98;14.65;;;3.10;99.90;;;;;;5054314;28;20032;-75
2023/11/29 00:43:07;;;;;;;29.65;15.85;;;3.10;99.90;;;;;;5054193;28;20044;-75
2023/11/29 00:45:33;;;;;;;28.33;15.13;;;3.00;99.90;;;;;;5052858;28;20510;-75
2023/11/29 00:47:58;;;;;;;28.58;14.32;;;3.00;99.90;;;;;;5052533;28;20106;-75
2023/11/29 00:50:24;;;;;;;28.58;15.00;;;3.00;99.90;;;;;;5051595;28;20028;-75
2023/11/29 00:52:50;;;;;;;30.80;14.95;;;3.00;99.90;;;;;;5052444;28;20082;-75
2023/11/29 00:55:16;;;;;;;27.27;14.77;;;3.00;99.90;;;;;;5033999;28;20036;-75
2023/11/29 00:57:41;;;;;;;31.27;15.32;;;3.00;99.90;;;;;;5054438;28;20052;-75
2023/11/29 01:00:07;;;;;;;30.45;15.63;;;3.00;99.90;;;;;;5054212;28;20033;-75
2023/11/29 01:02:33;;;;;;;29.58;15.93;;;3.10;99.90;;;;;;5043693;28;20029;-75
2023/11/29 01:04:59;;;;;;;29.05;13.70;;;3.10;99.90;;;;;;5063478;28;20032;-75
2023/11/29 01:07:25;;;;;;;31.85;16.27;;;3.10;99.90;;;;;;5037683;28;20025;-75
2023/11/29 01:09:51;;;;;;;32.42;14.68;;;3.20;99.90;;;;;;5050449;28;20017;-75
2023/11/29 01:12:16;;;;;;;28.88;15.02;;;3.20;99.90;;;;;;5053517;28;20024;-75
2023/11/29 01:14:42;;;;;;;29.63;16.08;;;3.20;99.90;;;;;;5053539;28;20021;-74
2023/11/29 01:17:08;;;;;;;31.48;15.30;;;3.20;99.90;;;;;;5052180;28;20033;-75
2023/11/29 01:19:33;;;;;;;26.67;15.30;;;3.10;99.90;;;;;;5053281;28;20021;-75
2023/11/29 01:21:59;;;;;;;27.95;14.95;;;3.00;99.90;;;;;;5035244;28;20025;-75
2023/11/29 01:24:25;;;;;;;29.50;15.40;;;3.10;99.90;;;;;;5053201;28;20100;-75
2023/11/29 01:26:51;;;;;;;30.38;16.30;;;3.10;99.90;;;;;;5052785;28;20040;-75
2023/11/29 01:29:17;;;;;;;35.17;17.02;;;3.10;99.90;;;;;;5052916;28;20025;-75
2023/11/29 01:31:42;;;;;;;30.30;15.10;;;3.20;99.90;;;;;;5053037;28;20029;-74
2023/11/29 01:34:08;;;;;;;29.00;13.52;;;3.10;99.90;;;;;;5051785;28;20071;-75
2023/11/29 01:36:34;;;;;;;27.85;14.80;;;3.10;99.90;;;;;;5051386;28;20045;-75
2023/11/29 01:39:00;;;;;;;29.00;14.65;;;3.20;99.90;;;;;;5051085;28;20030;-74
2023/11/29 01:41:26;;;;;;;25.60;14.05;;;3.20;99.90;;;;;;5051155;28;20029;-74
2023/11/29 01:43:52;;;;;;;27.80;14.90;;;3.20;99.90;;;;;;5049787;28;20067;-75
2023/11/29 01:46:17;;;;;;;28.25;15.05;;;3.30;99.90;;;;;;5053052;28;20376;-75
2023/11/29 01:48:43;;;;;;;28.83;15.60;;;3.30;99.90;;;;;;5052360;28;20404;-75
2023/11/29 01:51:09;;;;;;;34.53;15.63;;;3.30;99.90;;;;;;5051150;28;20017;-75
2023/11/29 01:53:37;;;;;;;28.40;15.25;;;3.30;99.90;;;;;;5050679;28;20036;-74
2023/11/29 01:56:03;;;;;;;28.45;13.82;;;3.30;99.90;;;;;;5052586;28;20021;-74
2023/11/29 01:58:29;;;;;;;26.38;14.23;;;3.30;99.90;;;;;;5051029;28;20025;-75
2023/11/29 02:00:56;;;;;;;29.98;15.32;;;3.30;99.90;;;;;;5052634;28;20021;-75
2023/11/29 02:03:22;;;;;;;23.48;12.38;;;3.30;99.90;;;;;;5050880;28;20074;-74
2023/11/29 02:05:48;;;;;;;25.95;12.65;;;3.40;99.90;;;;;;5051359;28;20449;-75
2023/11/29 02:08:14;;;;;;;33.15;13.93;;;3.40;99.90;;;;;;5052449;28;20476;-74
2023/11/29 02:10:41;;;;;;;24.63;11.75;;;3.40;99.90;;;;;;5052281;28;20024;-75
2023/11/29 02:13:07;;;;;;;23.25;12.52;;;3.30;99.90;;;;;;5052569;28;20025;-75
2023/11/29 02:15:33;;;;;;;30.05;13.60;;;3.40;99.90;;;;;;5052360;28;20028;-75
2023/11/29 02:18:00;;;;;;;27.55;13.18;;;3.30;99.90;;;;;;5052645;28;20077;-75
2023/11/29 02:20:26;;;;;;;25.42;13.07;;;3.40;99.90;;;;;;5050689;28;20032;-74
2023/11/29 02:23:31;;;;;;;25.55;13.10;;;3.40;99.90;;;;;;5042357;28;20435;-74
2023/11/29 02:25:57;;;;;;;28.10;13.57;;;3.40;99.90;;;;;;5029399;28;20030;-73
2023/11/29 02:28:23;;;;;;;25.75;12.98;;;3.40;99.90;;;;;;5041545;28;20511;-75
2023/11/29 02:30:48;;;;;;;21.92;12.95;;;3.40;99.90;;;;;;5050871;28;20028;-75
2023/11/29 02:33:14;;;;;;;24.83;13.57;;;3.50;99.90;;;;;;5050906;28;20029;-75
2023/11/29 02:35:40;;;;;;;20.02;11.43;;;3.50;99.90;;;;;;5051979;28;20043;-75
2023/11/29 02:38:06;;;;;;;21.88;11.85;;;3.50;99.90;;;;;;5052224;28;20033;-74
2023/11/29 02:40:31;;;;;;;29.10;11.82;;;3.50;99.90;;;;;;5051863;28;20029;-74
2023/11/29 02:42:57;;;;;;;23.08;11.80;;;3.60;99.90;;;;;;5051032;28;20025;-74
2023/11/29 02:45:23;;;;;;;20.30;11.52;;;3.60;99.90;;;;;;5052122;28;20106;-74
2023/11/29 02:47:49;;;;;;;22.33;11.32;;;3.60;99.90;;;;;;5048278;28;20026;-74
2023/11/29 02:50:17;;;;;;;28.05;12.30;;;3.70;99.90;;;;;;5050440;28;20322;-74
2023/11/29 02:52:45;;;;;;;22.50;11.93;;;3.70;99.90;;;;;;5051983;28;20021;-74
2023/11/29 02:55:11;;;;;;;22.05;12.45;;;3.80;99.90;;;;;;5050556;28;20036;-74
2023/11/29 02:57:37;;;;;;;24.52;13.00;;;4.00;99.90;;;;;;5050791;28;20029;-74
2023/11/29 03:00:03;;;;;;;26.55;13.23;;;4.00;99.90;;;;;;5052005;28;20130;-74
2023/11/29 03:02:29;;;;;;;26.38;14.13;;;4.00;99.90;;;;;;5049213;28;20033;-73
2023/11/29 03:04:54;;;;;;;25.67;13.65;;;4.00;99.90;;;;;;5051293;28;20505;-74
2023/11/29 03:07:20;;;;;;;24.17;13.68;;;4.00;99.90;;;;;;5052096;28;20101;-74
2023/11/29 03:09:46;;;;;;;23.13;14.38;;;4.00;99.90;;;;;;5051886;28;20127;-75
2023/11/29 03:12:12;;;;;;;33.72;16.88;;;4.00;99.90;;;;;;5050445;28;20029;-75
2023/11/29 03:14:37;;;;;;;29.45;16.77;;;4.00;99.90;;;;;;5054754;28;20025;-75
2023/11/29 03:17:03;;;;;;;31.88;17.02;;;4.00;99.90;;;;;;5054314;28;20067;-76
2023/11/29 03:19:29;;;;;;;28.95;16.92;;;4.00;99.90;;;;;;5054918;28;20021;-76
2023/11/29 03:21:55;;;;;;;27.50;15.65;;;4.00;99.90;;;;;;5053235;28;20068;-76
2023/11/29 03:24:21;;;;;;;25.88;16.23;;;4.00;99.90;;;;;;5034310;28;20044;-76
2023/11/29 03:26:46;;;;;;;36.95;16.17;;;4.00;99.90;;;;;;5035720;28;20576;-77
2023/11/29 03:29:12;;;;;;;30.20;16.08;;;4.10;99.90;;;;;;5052952;28;20025;-75
2023/11/29 03:31:38;;;;;;;29.65;14.63;;;4.00;99.90;;;;;;5051176;28;20164;-77
2023/11/29 03:34:04;;;;;;;30.05;16.10;;;4.10;99.90;;;;;;5038074;28;20024;-76
2023/11/29 03:36:29;;;;;;;32.75;16.73;;;4.10;99.90;;;;;;5053759;28;20033;-77
2023/11/29 03:38:55;;;;;;;30.30;16.08;;;4.10;99.90;;;;;;5055542;28;20025;-77
2023/11/29 03:41:21;;;;;;;29.20;18.17;;;4.10;99.90;;;;;;5053805;28;20029;-77
2023/11/29 03:43:47;;;;;;;34.03;18.08;;;4.10;99.90;;;;;;5053996;28;20471;-76
2023/11/29 03:46:12;;;;;;;36.75;18.63;;;4.10;99.90;;;;;;5053696;28;20029;-77
2023/11/29 03:48:38;;;;;;;38.20;16.30;;;4.10;99.90;;;;;;5054145;28;20115;-77
2023/11/29 03:51:04;;;;;;;29.90;14.98;;;4.10;99.90;;;;;;5055292;28;20075;-76
2023/11/29 03:53:30;;;;;;;25.83;13.80;;;4.10;99.90;;;;;;5052684;28;20075;-77
2023/11/29 03:55:56;;;;;;;31.33;13.68;;;4.00;99.90;;;;;;5054216;28;20379;-76
2023/11/29 03:58:22;;;;;;;24.10;13.23;;;3.90;99.90;;;;;;5037718;28;20017;-77
2023/11/29 04:00:47;;;;;;;28.77;13.07;;;3.80;99.90;;;;;;5036145;28;20032;-76
2023/11/29 04:03:13;;;;;;;26.55;12.13;;;3.80;99.90;;;;;;5050503;28;20025;-76
2023/11/29 04:05:39;;;;;;;24.05;11.45;;;3.80;99.90;;;;;;5051476;28;20025;-76
2023/11/29 04:08:05;;;;;;;21.42;11.85;;;3.80;99.90;;;;;;5053346;28;20090;-77
2023/11/29 04:10:33;;;;;;;23.70;11.80;;;3.70;99.90;;;;;;5054479;28;20111;-77
2023/11/29 04:13:00;;;;;;;27.10;12.65;;;3.70;99.90;;;;;;5053013;28;20134;-76
2023/11/29 04:15:26;;;;;;;21.73;11.45;;;3.80;99.90;;;;;;5054880;28;20029;-77
2023/11/29 04:17:52;;;;;;;22.83;11.75;;;3.80;99.90;;;;;;5053441;28;20025;-77
2023/11/29 04:20:18;;;;;;;24.20;11.27;;;3.80;99.90;;;;;;5053493;28;20086;-77
2023/11/29 04:22:47;;;;;;;23.15;12.20;;;3.80;99.90;;;;;;5053538;28;20017;-77
2023/11/29 04:25:13;;;;;;;26.13;12.90;;;3.70;99.90;;;;;;5054869;28;20387;-77
2023/11/29 04:27:39;;;;;;;26.40;13.13;;;3.70;99.90;;;;;;5052743;28;20017;-77
2023/11/29 04:30:05;;;;;;;32.63;15.25;;;3.70;99.90;;;;;;5053585;28;20513;-77
2023/11/29 04:32:31;;;;;;;30.05;13.98;;;3.70;99.90;;;;;;5049572;28;20528;-77
2023/11/29 04:34:57;;;;;;;27.13;14.38;;;3.80;99.90;;;;;;5033723;28;20053;-77
2023/11/29 04:37:23;;;;;;;27.35;14.25;;;3.80;99.90;;;;;;5050886;28;20036;-77
2023/11/29 04:39:48;;;;;;;33.10;15.75;;;3.80;99.90;;;;;;5052830;28;20028;-76
2023/11/29 04:42:14;;;;;;;33.05;17.05;;;3.80;99.90;;;;;;5053648;28;20031;-77
2023/11/29 04:44:40;;;;;;;36.35;16.00;;;3.70;99.90;;;;;;5053521;28;20466;-77
2023/11/29 04:47:06;;;;;;;33.33;16.50;;;3.80;99.90;;;;;;5054246;28;20545;-77
2023/11/29 04:49:32;;;;;;;32.80;17.25;;;3.70;99.90;;;;;;5054395;28;20478;-77
2023/11/29 04:51:58;;;;;;;33.88;18.70;;;3.70;99.90;;;;;;5053116;28;20032;-77
2023/11/29 04:54:24;;;;;;;33.58;18.15;;;3.80;99.90;;;;;;5054495;28;20151;-76
2023/11/29 04:56:50;;;;;;;33.08;17.95;;;3.80;99.90;;;;;;5053049;28;20025;-77
2023/11/29 04:59:16;;;;;;;31.08;17.48;;;3.80;99.90;;;;;;5052914;28;20024;-77
2023/11/29 05:01:41;;;;;;;29.77;16.45;;;3.80;99.90;;;;;;5052143;28;20363;-78
2023/11/29 05:04:07;;;;;;;28.83;17.35;;;3.80;99.90;;;;;;5052612;28;20025;-78
2023/11/29 05:06:33;;;;;;;33.55;16.08;;;3.80;99.90;;;;;;5058356;28;20514;-77
2023/11/29 05:08:59;;;;;;;30.25;14.65;;;3.90;99.90;;;;;;5058661;28;20479;-77
2023/11/29 05:11:25;;;;;;;24.98;13.70;;;3.80;99.90;;;;;;5075703;28;20059;-77
2023/11/29 05:13:51;;;;;;;24.33;12.90;;;3.80;99.90;;;;;;5058877;28;20021;-77
2023/11/29 05:16:16;;;;;;;19.63;11.30;;;3.80;99.90;;;;;;5059027;28;20036;-77
2023/11/29 05:18:42;;;;;;;20.08;11.52;;;3.80;99.90;;;;;;5074279;28;20021;-77
2023/11/29 05:21:08;;;;;;;15.35;10.30;;;3.80;99.90;;;;;;5056540;28;20357;-78
2023/11/29 05:23:34;;;;;;;19.10;11.13;;;3.90;99.90;;;;;;5049469;28;20483;-77
2023/11/29 05:26:00;;;;;;;18.52;11.63;;;3.90;99.90;;;;;;5044240;28;20017;-77
2023/11/29 05:28:26;;;;;;;19.95;10.57;;;3.80;99.90;;;;;;5033345;28;20391;-78
2023/11/29 05:30:53;;;;;;;17.25;11.50;;;3.90;99.90;;;;;;5048437;28;20026;-77
2023/11/29 05:33:22;;;;;;;15.77;10.02;;;3.80;99.90;;;;;;5048256;28;20025;-78
2023/11/29 05:35:49;;;;;;;18.42;10.35;;;3.90;99.90;;;;;;5032453;28;20037;-78
2023/11/29 05:38:15;;;;;;;19.02;11.18;;;3.90;99.90;;;;;;5031834;28;20396;-78
2023/11/29 05:40:41;;;;;;;18.85;11.05;;;3.80;99.90;;;;;;5031397;28;20543;-78
2023/11/29 05:43:06;;;;;;;22.50;11.50;;;3.90;99.90;;;;;;5048327;28;20104;-77
2023/11/29 05:45:32;;;;;;;18.45;11.82;;;3.90;99.90;;;;;;5032243;28;20105;-77
2023/11/29 05:47:58;;;;;;;16.40;11.23;;;3.90;99.90;;;;;;5031890;28;20029;-77
2023/11/29 05:50:24;;;;;;;17.35;11.93;;;4.00;99.90;;;;;;5032854;28;20100;-77
2023/11/29 05:52:49;;;;;;;20.60;11.18;;;3.90;99.90;;;;;;5032190;28;20029;-77
2023/11/29 05:55:15;;;;;;;22.92;11.95;;;4.00;99.90;;;;;;5052686;28;20032;-77
2023/11/29 05:57:44;;;;;;;21.23;12.10;;;4.00;99.90;;;;;;5052882;28;20054;-77
2023/11/29 06:00:11;;;;;;;20.35;11.75;;;4.00;99.90;;;;;;5051445;28;20025;-77
2023/11/29 06:02:39;;;;;;;24.15;12.35;;;4.10;99.90;;;;;;5051541;28;20020;-77
2023/11/29 06:05:05;;;;;;;19.42;11.95;;;4.10;99.90;;;;;;5051325;28;20036;-77
2023/11/29 06:07:33;;;;;;;21.00;11.82;;;4.00;99.90;;;;;;5051509;28;20032;-78
2023/11/29 06:09:59;;;;;;;21.13;12.95;;;4.00;99.90;;;;;;5051824;28;20120;-77
2023/11/29 06:12:25;;;;;;;22.05;13.23;;;4.00;99.90;;;;;;5050394;28;20108;-77
2023/11/29 06:14:51;;;;;;;25.08;13.40;;;3.90;99.90;;;;;;5052727;28;20445;-77
2023/11/29 06:17:17;;;;;;;22.30;13.80;;;3.90;99.90;;;;;;5068078;28;20013;-77
2023/11/29 06:19:44;;;;;;;24.73;14.15;;;4.00;99.90;;;;;;5051921;28;20021;-77
2023/11/29 06:22:11;;;;;;;24.67;14.15;;;4.00;99.90;;;;;;5050996;28;20025;-77
2023/11/29 06:24:37;;;;;;;24.58;13.95;;;4.00;99.90;;;;;;5051605;28;20021;-77
2023/11/29 06:27:03;;;;;;;23.83;14.60;;;4.10;99.90;;;;;;5051321;28;20020;-76
2023/11/29 06:29:31;;;;;;;25.90;14.68;;;4.10;99.90;;;;;;5052172;28;20036;-76
2023/11/29 06:31:57;;;;;;;20.95;14.43;;;4.10;99.90;;;;;;5050961;28;20368;-76
2023/11/29 06:34:23;;;;;;;26.00;14.07;;;4.00;99.90;;;;;;5048356;28;20056;-77
2023/11/29 06:36:49;;;;;;;23.23;12.45;;;4.00;99.90;;;;;;5040704;28;20580;-77
2023/11/29 06:39:17;;;;;;;29.13;15.25;;;4.00;99.90;;;;;;5032444;28;20048;-77
2023/11/29 06:41:45;;;;;;;24.35;14.32;;;4.00;99.90;;;;;;5031047;28;20033;-76
2023/11/29 06:44:11;;;;;;;19.50;12.88;;;4.00;99.90;;;;;;5032405;28;20379;-77
2023/11/29 06:46:39;;;;;;;25.45;13.93;;;4.10;99.90;;;;;;5030963;28;20097;-77
2023/11/29 06:49:06;;;;;;;23.27;15.00;;;4.00;99.90;;;;;;5032329;28;20075;-77
2023/11/29 06:51:31;;;;;;;23.13;13.30;;;4.00;99.90;;;;;;5035096;28;20542;-76
2023/11/29 06:53:57;;;;;;;20.27;13.05;;;4.00;99.90;;;;;;5035290;28;20029;-77
2023/11/29 06:56:23;;;;;;;20.90;12.65;;;4.00;99.90;;;;;;5034946;28;20026;-77
2023/11/29 06:58:49;;;;;;;20.95;12.93;;;4.00;99.90;;;;;;5034432;28;20032;-76
2023/11/29 07:01:15;;;;;;;22.20;13.43;;;3.90;99.90;;;;;;5032700;28;20368;-77
2023/11/29 07:03:41;;;;;;;19.50;12.55;;;4.00;99.90;;;;;;5034883;28;20022;-77
2023/11/29 07:06:08;;;;;;;21.75;13.63;;;4.00;99.90;;;;;;5034336;28;20022;-76
2023/11/29 07:08:33;;;;;;;21.98;14.27;;;3.90;99.90;;;;;;5035870;28;20392;-76
2023/11/29 07:11:04;;;;;;;20.55;13.18;;;4.00;99.90;;;;;;5036050;28;20025;-77
2023/11/29 07:13:30;;;;;;;26.02;13.40;;;3.90;99.90;;;;;;5036172;28;20041;-77
2023/11/29 07:15:56;;;;;;;24.70;14.45;;;3.90;99.90;;;;;;5035057;28;20436;-76
2023/11/29 07:18:28;;;;;;;21.25;13.60;;;3.80;99.90;;;;;;5054393;28;20094;-76
2023/11/29 07:20:53;;;;;;;20.23;13.30;;;3.80;99.90;;;;;;5070560;28;20082;-77
2023/11/29 07:23:22;;;;;;;26.52;13.07;;;3.80;99.90;;;;;;5054392;28;20546;-77
2023/11/29 07:25:49;;;;;;;29.65;15.35;;;3.80;99.90;;;;;;5054404;28;20024;-76
2023/11/29 07:28:18;;;;;;;24.80;13.80;;;3.80;99.90;;;;;;5054525;28;20705;-77
2023/11/29 07:30:44;;;;;;;29.13;17.00;;;3.80;99.90;;;;;;5053553;28;20025;-76
2023/11/29 07:33:11;;;;;;;26.02;15.82;;;3.80;99.90;;;;;;5054428;28;20025;-77
2023/11/29 07:35:36;;;;;;;27.52;15.35;;;3.80;99.90;;;;;;5055305;28;20036;-77
2023/11/29 07:38:02;;;;;;;26.27;17.35;;;3.80;99.90;;;;;;5054208;28;20028;-76
2023/11/29 07:40:28;;;;;;;26.33;16.30;;;3.80;99.90;;;;;;5054027;28;20029;-77
2023/11/29 07:42:54;;;;;;;31.95;17.60;;;3.90;99.90;;;;;;5053621;28;20472;-77
2023/11/29 07:45:20;;;;;;;31.25;18.05;;;4.00;99.90;;;;;;5055172;28;20016;-77
2023/11/29 07:47:45;;;;;;;26.67;16.65;;;4.10;99.90;;;;;;5053709;28;20017;-76
2023/11/29 07:50:14;;;;;;;27.50;17.45;;;4.10;99.90;;;;;;5053479;28;20043;-76
2023/11/29 07:52:43;;;;;;;23.98;15.18;;;4.20;99.90;;;;;;5055022;28;20443;-77
2023/11/29 07:55:08;;;;;;;25.75;16.13;;;4.10;99.90;;;;;;5055195;28;20029;-76
2023/11/29 07:57:34;;;;;;;33.08;17.15;;;4.10;99.90;;;;;;5053664;28;20025;-77
2023/11/29 08:00:05;;;;;;;27.60;15.40;;;4.20;99.90;;;;;;5053147;28;20457;-77
2023/11/29 08:02:32;;;;;;;27.08;16.73;;;4.20;99.90;;;;;;5047199;28;20032;-77
2023/11/29 08:04:59;;;;;;;33.70;15.45;;;4.20;99.90;;;;;;5050414;28;20029;-77
2023/11/29 08:07:25;;;;;;;30.15;14.73;;;4.10;99.90;;;;;;5033582;28;20029;-76
2023/11/29 08:09:51;;;;;;;19.88;13.10;;;4.20;99.90;;;;;;5052320;28;20040;-76
2023/11/29 08:12:17;;;;;;;20.52;13.68;;;4.20;99.90;;;;;;5053251;28;20013;-76
2023/11/29 08:14:43;;;;;;;25.30;14.52;;;4.20;99.90;;;;;;5050630;28;20710;-77
2023/11/29 08:17:09;;;;;;;28.42;13.32;;;4.20;99.90;;;;;;5045215;28;20037;-75
2023/11/29 08:19:34;;;;;;;28.05;15.05;;;4.20;99.90;;;;;;5052481;28;20221;-75
2023/11/29 08:22:03;;;;;;;23.08;13.55;;;4.20;99.90;;;;;;5032138;28;20064;-75
2023/11/29 08:24:29;;;;;;;23.08;13.65;;;4.20;99.90;;;;;;5051407;28;20029;-75
2023/11/29 08:26:55;;;;;;;24.42;13.98;;;4.20;99.90;;;;;;5048408;28;20552;-75
2023/11/29 08:29:21;;;;;;;28.20;14.20;;;4.10;99.90;;;;;;5050546;28;20083;-75
2023/11/29 08:31:47;;;;;;;24.70;14.90;;;4.20;99.90;;;;;;5051036;28;20021;-75
2023/11/29 08:34:12;;;;;;;23.90;14.13;;;4.30;99.90;;;;;;5052966;28;20090;-75
2023/11/29 08:36:38;;;;;;;22.85;14.75;;;4.40;99.90;;;;;;5052271;28;20041;-76
2023/11/29 08:39:04;;;;;;;23.30;14.98;;;4.40;99.90;;;;;;5046833;28;20064;-76
2023/11/29 08:41:30;;;;;;;28.00;17.50;;;4.50;99.90;;;;;;5032025;28;20028;-76
2023/11/29 08:43:56;;;;;;;25.00;17.45;;;4.50;99.90;;;;;;5048175;28;20021;-76
2023/11/29 08:46:22;;;;;;;33.67;17.35;;;4.50;99.90;;;;;;5052222;28;20488;-76
2023/11/29 08:48:48;;;;;;;28.00;17.98;;;4.60;99.90;;;;;;5053089;28;20082;-76
2023/11/29 08:51:17;;;;;;;32.15;16.52;;;4.60;99.90;;;;;;5051464;28;20112;-76
2023/11/29 08:53:42;;;;;;;28.95;17.15;;;4.60;99.90;;;;;;5048029;28;20124;-76
2023/11/29 08:56:18;;;;;;;27.50;17.48;;;4.60;99.90;;;;;;5034333;28;20113;-76
2023/11/29 08:58:47;;;;;;;28.83;18.63;;;4.60;99.90;;;;;;5037481;28;20057;-76
2023/11/29 09:01:16;;;;;;;28.42;18.50;;;4.60;99.90;;;;;;5041380;28;20414;-76
2023/11/29 09:03:42;;;;;;;28.75;17.75;;;4.70;99.90;;;;;;5043430;28;20106;-76
2023/11/29 09:06:08;;;;;;;28.95;17.85;;;4.70;99.90;;;;;;5046621;28;20016;-76
2023/11/29 09:08:34;;;;;;;26.83;17.30;;;4.70;99.90;;;;;;5047867;28;20037;-76
2023/11/29 09:11:00;;;;;;;24.88;15.32;;;4.70;99.90;;;;;;5012207;28;20025;-74
2023/11/29 09:13:26;;;;;;;27.23;16.13;;;4.80;99.90;;;;;;5030904;28;20077;-74
2023/11/29 09:15:52;;;;;;;21.92;14.45;;;4.80;99.90;;;;;;5033912;28;20078;-75
2023/11/29 09:18:18;;;;;;;22.10;14.57;;;4.80;99.90;;;;;;5035116;28;20029;-75
2023/11/29 09:20:44;;;;;;;25.10;14.77;;;4.90;99.90;;;;;;5035680;28;20103;-76
2023/11/29 09:23:10;;;;;;;23.67;14.57;;;4.90;99.90;;;;;;5037358;28;20013;-74
2023/11/29 09:25:36;;;;;;;27.42;14.15;;;4.90;99.90;;;;;;5034353;28;20040;-74
2023/11/29 09:28:06;;;;;;;17.83;12.40;;;4.90;99.90;;;;;;5035748;28;20017;-74
2023/11/29 09:30:33;;;;;;;21.10;12.57;;;4.90;99.90;;;;;;5032444;28;20045;-74
2023/11/29 09:32:58;;;;;;;20.88;11.88;;;4.90;99.90;;;;;;5035289;28;20017;-75
2023/11/29 09:35:24;;;;;;;18.10;10.43;;;4.90;99.90;;;;;;5035994;28;20025;-75
2023/11/29 09:37:50;;;;;;;16.75;10.68;;;4.90;99.90;;;;;;5038212;28;20387;-75
2023/11/29 09:40:16;;;;;;;16.77;11.80;;;5.00;99.90;;;;;;5035612;28;21055;-75
2023/11/29 09:42:43;;;;;;;19.77;12.75;;;4.90;99.90;;;;;;5035165;28;20029;-75
2023/11/29 09:45:20;;;;;;;24.55;13.20;;;4.90;99.90;;;;;;5036108;28;20593;-75
2023/11/29 09:47:46;;;;;;;18.83;10.88;;;5.00;99.90;;;;;;5057422;28;20021;-75
2023/11/29 09:50:13;;;;;;;16.35;11.77;;;5.00;99.90;;;;;;5031773;28;20559;-75
2023/11/29 09:52:39;;;;;;;19.83;10.90;;;5.00;99.90;;;;;;5029658;28;20036;-75
2023/11/29 09:55:05;;;;;;;17.55;9.75;;;5.10;99.90;;;;;;5031924;28;20013;-75
2023/11/29 09:57:31;;;;;;;20.00;9.45;;;5.10;99.90;;;;;;5028563;28;20036;-75
2023/11/29 09:59:57;;;;;;;14.95;9.07;;;5.10;99.90;;;;;;5047633;28;20372;-75
2023/11/29 10:02:23;;;;;;;14.15;8.95;;;5.20;99.90;;;;;;5032694;28;20374;-75
2023/11/29 10:04:49;;;;;;;14.32;8.60;;;5.20;99.90;;;;;;5031905;28;20021;-75
2023/11/29 10:07:14;;;;;;;12.95;8.85;;;5.20;99.90;;;;;;5033312;28;20049;-75
2023/11/29 10:09:40;;;;;;;13.10;9.15;;;5.20;99.90;;;;;;5029139;28;20009;-75
2023/11/29 10:12:08;;;;;;;14.40;9.05;;;5.20;99.90;;;;;;5030195;28;20075;-75
2023/11/29 10:14:41;;;;;;;16.10;9.90;;;5.20;99.90;;;;;;5034968;28;20036;-75
2023/11/29 10:17:12;;;;;;;19.27;10.43;;;5.20;99.90;;;;;;5033359;28;20040;-75
2023/11/29 10:19:38;;;;;;;21.88;11.80;;;5.20;99.90;;;;;;5034314;28;20545;-75
2023/11/29 10:22:04;;;;;;;18.92;11.32;;;5.20;99.90;;;;;;5037951;28;20033;-75
2023/11/29 10:24:30;;;;;;;17.27;11.10;;;5.30;99.90;;;;;;5047649;28;20025;-75
2023/11/29 10:26:56;;;;;;;23.05;10.55;;;5.20;99.90;;;;;;5031787;28;20120;-75
2023/11/29 10:29:22;;;;;;;18.05;11.27;;;5.20;99.90;;;;;;5034956;28;20057;-75
2023/11/29 10:31:50;;;;;;;19.73;11.27;;;5.20;99.90;;;;;;5038099;28;20450;-75
2023/11/29 10:34:18;;;;;;;18.13;11.00;;;5.20;99.90;;;;;;5034554;28;20026;-75
2023/11/29 10:36:46;;;;;;;22.50;11.68;;;5.30;99.90;;;;;;5032642;28;20032;-75
2023/11/29 10:39:16;;;;;;;18.83;10.80;;;5.30;99.90;;;;;;5034893;28;20094;-75
2023/11/29 10:41:54;;;;;;;21.13;12.48;;;5.40;99.90;;;;;;5033663;28;20034;-75
2023/11/29 10:44:30;;;;;;;22.45;12.43;;;5.40;99.90;;;;;;5031959;28;20044;-76
2023/11/29 10:47:19;;;;;;;20.95;11.38;;;5.40;99.90;;;;;;5031350;28;20018;-75
2023/11/29 10:49:53;;;;;;;20.75;11.38;;;5.50;99.90;;;;;;5036933;28;20109;-75
2023/11/29 10:52:19;;;;;;;23.80;12.40;;;5.50;99.90;;;;;;5035615;28;20028;-75
2023/11/29 10:54:49;;;;;;;18.23;11.80;;;5.50;99.90;;;;;;5032308;28;20056;-75
2023/11/29 10:57:23;;;;;;;17.17;10.63;;;5.50;99.90;;;;;;5037192;28;20045;-75
2023/11/29 10:59:56;;;;;;;18.17;11.98;;;5.50;99.90;;;;;;5036147;28;20013;-75
2023/11/29 11:02:23;;;;;;;18.23;12.70;;;5.50;99.90;;;;;;5035115;28;20033;-75
2023/11/29 11:05:07;;;;;;;18.58;12.38;;;5.60;99.90;;;;;;5032865;28;20055;-75
2023/11/29 11:07:44;;;;;;;18.02;11.27;;;5.60;99.90;;;;;;5038190;28;20442;-76
2023/11/29 11:10:14;;;;;;;14.45;11.27;;;5.70;99.90;;;;;;5034089;28;20017;-75
2023/11/29 11:12:41;;;;;;;15.88;10.63;;;5.70;99.90;;;;;;5032609;28;20375;-75
2023/11/29 11:15:19;;;;;;;17.45;11.68;;;5.80;99.90;;;;;;5033522;28;20044;-75
2023/11/29 11:18:05;;;;;;;15.23;10.52;;;5.70;99.90;;;;;;5040228;28;20080;-76
2023/11/29 11:20:41;;;;;;;18.02;11.50;;;5.70;99.90;;;;;;5030808;28;20034;-75
2023/11/29 11:23:07;;;;;;;18.35;9.50;;;5.80;99.90;;;;;;5031745;28;20026;-75
2023/11/29 11:25:35;;;;;;;14.82;9.45;;;5.80;99.90;;;;;;5030456;28;20017;-75
2023/11/29 11:28:03;;;;;;;13.38;9.43;;;5.90;99.90;;;;;;5028657;28;20025;-76
2023/11/29 11:30:29;;;;;;;13.02;9.73;;;5.90;99.90;;;;;;5029963;28;20017;-75
2023/11/29 11:32:57;;;;;;;13.43;10.27;;;5.90;99.90;;;;;;5031786;28;20498;-76
2023/11/29 11:35:33;;;;;;;16.73;10.43;;;5.90;99.90;;;;;;5051827;28;20108;-75
2023/11/29 11:38:03;;;;;;;17.70;9.88;;;5.90;99.90;;;;;;5031727;28;20037;-75
2023/11/29 11:40:31;;;;;;;16.98;9.98;;;5.90;99.90;;;;;;5035012;28;20568;-75
2023/11/29 11:42:58;;;;;;;13.93;10.55;;;5.90;99.90;;;;;;5035930;28;20013;-75
2023/11/29 11:45:29;;;;;;;15.38;10.18;;;5.90;99.90;;;;;;5029548;28;20035;-74
2023/11/29 11:47:55;;;;;;;11.07;9.45;;;5.90;99.90;;;;;;5042617;28;20111;-75
2023/11/29 11:50:21;;;;;;;27.63;11.25;;;5.80;99.90;;;;;;5037255;28;20049;-75
2023/11/29 11:52:47;;;;;;;12.23;8.68;;;5.80;99.90;;;;;;5031352;28;20118;-75
2023/11/29 11:55:15;;;;;;;11.82;7.80;;;5.80;99.90;;;;;;5035807;28;20893;-75
2023/11/29 11:57:46;;;;;;;10.05;6.63;;;5.80;99.90;;;;;;5034831;28;20024;-74
2023/11/29 12:00:13;;;;;;;12.02;8.52;;;5.80;99.90;;;;;;5039105;28;20028;-75
2023/11/29 12:02:40;;;;;;;13.48;7.90;;;5.80;99.90;;;;;;5032411;28;20006;-75
2023/11/29 12:05:07;;;;;;;13.18;7.97;;;5.80;99.90;;;;;;5037149;28;20021;-75
2023/11/29 12:07:39;;;;;;;11.52;7.40;;;5.70;99.90;;;;;;5051521;28;20022;-75
2023/11/29 12:10:08;;;;;;;12.65;6.63;;;5.80;99.90;;;;;;5032989;28;20013;-75
2023/11/29 12:12:34;;;;;;;9.95;7.20;;;5.80;99.90;;;;;;5036016;28;20022;-74
2023/11/29 12:15:02;;;;;;;10.73;7.15;;;5.90;99.90;;;;;;5032082;28;20018;-75
2023/11/29 12:17:33;;;;;;;8.32;6.85;;;6.00;99.90;;;;;;5038858;28;20010;-75
2023/11/29 12:19:59;;;;;;;10.07;5.00;;;6.10;99.90;;;;;;5037919;28;20052;-75
2023/11/29 12:22:25;;;;;;;10.40;5.20;;;6.10;99.90;;;;;;5032707;28;20032;-74
2023/11/29 12:24:51;;;;;;;11.40;7.70;;;6.10;99.90;;;;;;5035601;28;20071;-75
2023/11/29 12:27:18;;;;;;;7.78;6.40;;;6.20;99.90;;;;;;5033384;28;20917;-75
2023/11/29 12:29:48;;;;;;;7.53;5.88;;;6.30;99.90;;;;;;5033441;28;20123;-75
2023/11/29 12:32:15;;;;;;;7.53;6.13;;;6.30;99.90;;;;;;5027760;28;20029;-75
2023/11/29 12:34:42;;;;;;;9.90;6.50;;;6.30;99.90;;;;;;5031766;28;20464;-74
2023/11/29 12:37:17;;;;;;;11.10;7.47;;;6.30;99.90;;;;;;5032279;28;20018;-76